Time;durP1;ratioP1;P1;durP2;ratioP2;P2;SDS_P1;SDS_P2;PMS_P1;PMS_P2;Temp;Humidity;BMP_temperature;BMP_pressure;BME280_temperature;BME280_humidity;BME280_pressure;Samples;Min_cycle;Max_cycle;Signal;HPM_P1;HPM_P2
2022/10/17 00:00:49;;;;;;;;;;;;;;;14.60;66.67;101343.84;5070583;28;19916;-32
2022/10/17 00:03:15;;;;;;;;;;;;;;;14.58;66.91;101343.00;5055753;28;19971;-32
2022/10/17 00:05:41;;;;;;;;;;;;;;;14.56;67.10;101335.06;5071279;28;20011;-32
2022/10/17 00:08:06;;;;;;;;;;;;;;;14.54;66.89;101346.63;5068837;28;19912;-33
2022/10/17 00:10:32;;;;;;;;;;;;;;;14.51;66.96;101347.53;5070055;28;19913;-33
2022/10/17 00:12:57;;;;;;;;;;;;;;;14.50;66.97;101351.06;5070321;28;19912;-33
2022/10/17 00:15:22;;;;;;;;;;;;;;;14.48;67.22;101348.44;5071152;28;19912;-33
2022/10/17 00:17:47;;;;;;;;;;;;;;;14.47;67.00;101352.00;5066352;28;19920;-32
2022/10/17 00:20:13;;;;;;;;;;;;;;;14.45;66.92;101353.81;5045896;28;20348;-33
2022/10/17 00:22:38;;;;;;;;;;;;;;;14.43;67.12;101355.59;5065169;28;19916;-33
2022/10/17 00:25:04;;;;;;;;;;;;;;;14.41;67.26;101357.41;5066722;28;19916;-33
2022/10/17 00:27:29;;;;;;;;;;;;;;;14.39;67.28;101361.84;5067140;28;19916;-33
2022/10/17 00:29:54;;;;;;;;;;;;;;;14.37;67.38;101360.97;5066107;28;19950;-33
2022/10/17 00:32:19;;;;;;;;;;;;;;;14.36;67.36;101356.59;5053270;28;19912;-32
2022/10/17 00:34:45;;;;;;;;;;;;;;;14.34;67.39;101347.78;5069777;28;20009;-33
2022/10/17 00:37:10;;;;;;;;;;;;;;;14.35;67.43;101357.50;5070480;28;20298;-33
2022/10/17 00:39:35;;;;;;;;;;;;;;;14.31;67.48;101355.78;5069641;28;19912;-32
2022/10/17 00:42:01;;;;;;;;;;;;;;;14.29;67.58;101349.59;5070485;28;19939;-32
2022/10/17 00:44:29;;;;;;;;;;;;;;;14.28;67.66;101351.41;5071652;28;19979;-33
2022/10/17 00:46:54;;;;;;;;;;;;;;;14.27;67.73;101359.38;5070367;28;19920;-33
2022/10/17 00:49:20;;;;;;;;;;;;;;;14.26;67.64;101357.59;5068647;28;20046;-33
2022/10/17 00:51:46;;;;;;;;;;;;;;;14.24;67.73;101345.25;5067766;28;19963;-32
2022/10/17 00:54:11;;;;;;;;;;;;;;;14.22;67.68;101352.34;5050633;28;20350;-32
2022/10/17 00:56:39;;;;;;;;;;;;;;;14.23;67.84;101348.78;5049974;28;20011;-31
2022/10/17 00:59:04;;;;;;;;;;;;;;;14.20;67.87;101343.53;5051535;28;19913;-33
2022/10/17 01:01:29;;;;;;;;;;;;;;;14.20;67.91;101354.13;5069137;28;20845;-33
2022/10/17 01:03:54;;;;;;;;;;;;;;;14.19;67.84;101354.16;5070591;28;19919;-32
2022/10/17 01:06:20;;;;;;;;;;;;;;;14.17;67.87;101353.31;5067167;28;20359;-32
2022/10/17 01:08:45;;;;;;;;;;;;;;;14.15;67.80;101356.00;5068695;28;19916;-33
2022/10/17 01:11:21;;;;;;;;;;;;;;;14.13;67.79;101365.72;5052722;28;20383;-32
2022/10/17 01:13:46;;;;;;;;;;;;;;;14.13;67.80;101362.22;5042999;28;19922;-32
2022/10/17 01:16:25;;;;;;;;;;;;;;;14.13;67.90;101362.22;5066822;28;19995;-32
2022/10/17 01:19:02;;;;;;;;;;;;;;;14.10;67.73;101364.00;5049741;28;19912;-32
2022/10/17 01:21:37;;;;;;;;;;;;;;;14.09;67.78;101361.34;5048740;28;19999;-32
2022/10/17 01:24:08;;;;;;;;;;;;;;;14.08;67.71;101360.47;5050298;28;19951;-32
2022/10/17 01:26:52;;;;;;;;;;;;;;;14.07;67.69;101357.88;5044180;28;20402;-32
2022/10/17 01:29:32;;;;;;;;;;;;;;;14.06;67.75;101350.78;5063382;28;19916;-32
2022/10/17 01:32:07;;;;;;;;;;;;;;;14.04;67.74;101352.59;5069074;28;19920;-32
2022/10/17 01:34:35;;;;;;;;;;;;;;;14.03;67.74;101350.81;5032847;28;19912;-32
2022/10/17 01:37:03;;;;;;;;;;;;;;;14.00;67.66;101351.75;5048541;28;20283;-33
2022/10/17 01:39:31;;;;;;;;;;;;;;;13.97;67.88;101342.06;5065650;28;20389;-32
2022/10/17 01:42:06;;;;;;;;;;;;;;;13.97;67.62;101336.75;5068154;28;19981;-32
2022/10/17 01:44:39;;;;;;;;;;;;;;;13.97;67.61;101335.84;5052235;28;20433;-32
2022/10/17 01:47:05;;;;;;;;;;;;;;;13.95;67.56;101342.97;5049959;28;19923;-33
2022/10/17 01:49:31;;;;;;;;;;;;;;;13.93;67.63;101335.03;5063292;28;19920;-32
2022/10/17 01:51:59;;;;;;;;;;;;;;;13.92;67.63;101333.28;5069480;28;19912;-32
2022/10/17 01:54:30;;;;;;;;;;;;;;;13.91;67.71;101328.84;5049956;28;19922;-32
2022/10/17 01:56:56;;;;;;;;;;;;;;;13.89;67.82;101322.72;5033507;28;20282;-33
2022/10/17 01:59:22;;;;;;;;;;;;;;;13.89;67.89;101322.72;5047217;28;19971;-32
2022/10/17 02:01:49;;;;;;;;;;;;;;;13.86;67.67;101325.41;5049661;28;19947;-32
2022/10/17 02:04:15;;;;;;;;;;;;;;;13.85;67.65;101329.81;5069535;28;19913;-32
2022/10/17 02:06:40;;;;;;;;;;;;;;;13.84;67.66;101324.56;5073425;28;19950;-32
2022/10/17 02:09:35;;;;;;;;;;;;;;;13.82;67.71;101329.88;5071893;28;19917;-32
2022/10/17 02:12:09;;;;;;;;;;;;;;;13.81;67.71;101351.09;5049480;28;19912;-32
2022/10/17 02:14:37;;;;;;;;;;;;;;;13.78;67.63;101337.88;5053163;28;20007;-32
2022/10/17 02:17:14;;;;;;;;;;;;;;;13.75;67.63;101341.44;5070793;28;20497;-33
2022/10/17 02:20:12;;;;;;;;;;;;;;;13.73;67.58;101349.41;5068223;28;19913;-32
2022/10/17 02:22:57;;;;;;;;;;;;;;;13.72;67.56;101342.38;5025637;28;19912;-32
2022/10/17 02:25:45;;;;;;;5.63;4.18;;;;;;;13.70;67.55;101343.25;5048829;28;20058;-32
2022/10/17 02:28:25;;;;;;;6.22;4.10;;;;;;;13.67;67.58;101335.38;5033833;28;20024;-32
2022/10/17 02:30:57;;;;;;;5.78;4.00;;;;;;;13.66;67.75;101339.78;5052298;28;20541;-32
2022/10/17 02:33:27;;;;;;;6.82;4.10;;;;;;;13.63;67.90;101331.84;5052344;28;20397;-32
2022/10/17 02:35:55;;;;;;;5.75;4.03;;;;;;;13.62;67.54;101321.25;5052615;28;20021;-32
2022/10/17 02:38:21;;;;;;;6.97;4.03;;;;;;;13.60;67.74;101326.56;5071363;28;20028;-33
2022/10/17 02:40:49;;;;;;;7.88;4.45;;;;;;;13.58;67.62;101326.59;5054700;28;20032;-33
2022/10/17 02:43:14;;;;;;;5.82;4.20;;;;;;;13.57;67.68;101318.69;5033960;28;20051;-33
2022/10/17 02:45:40;;;;;;;5.72;4.03;;;;;;;13.54;67.39;101318.72;5071993;28;20395;-32
2022/10/17 02:48:11;;;;;;;6.18;4.00;;;;;;;13.53;67.66;101324.88;5053353;28;20020;-31
2022/10/17 02:51:06;;;;;;;6.55;3.92;;;;;;;13.51;67.57;101321.41;5070523;28;20032;-32
2022/10/17 02:53:37;;;;;;;;;;;;;;;13.50;67.78;101322.31;5066660;28;20040;-32
2022/10/17 02:56:09;;;;;;;6.15;3.92;;;;;;;13.47;67.79;101324.03;5051974;28;19966;-32
2022/10/17 02:58:34;;;;;;;;;;;;;;;13.45;67.92;101328.50;5034676;28;19962;-32
2022/10/17 03:01:00;;;;;;;;;;;;;;;13.43;67.88;101324.97;5054182;28;19912;-32
2022/10/17 03:03:27;;;;;;;;;;;;;;;13.42;68.03;101333.81;5073874;28;19912;-33
2022/10/17 03:05:52;;;;;;;;;;;;;;;13.41;68.12;101332.03;5068372;28;20481;-32
2022/10/17 03:08:18;;;;;;;;;;;;;;;13.40;68.29;101329.44;5069862;28;20018;-32
2022/10/17 03:10:43;;;;;;;;;;;;;;;13.39;68.34;101336.50;5072796;28;20290;-33
2022/10/17 03:13:08;;;;;;;;;;;;;;;13.38;68.11;101334.75;5073011;28;19921;-32
2022/10/17 03:15:33;;;;;;;;;;;;;;;13.37;68.17;101335.63;5072808;28;19912;-32
2022/10/17 03:17:59;;;;;;;;;;;;;;;13.36;68.19;101339.16;5070381;28;19921;-32
2022/10/17 03:20:24;;;;;;;;;;;;;;;13.34;68.17;101336.53;5051870;28;19939;-32
2022/10/17 03:22:49;;;;;;;;;;;;;;;13.32;68.13;101329.50;5070025;28;19960;-32
2022/10/17 03:25:14;;;;;;;;;;;;;;;13.32;68.30;101337.44;5066223;28;19965;-32
2022/10/17 03:27:39;;;;;;;;;;;;;;;13.31;68.44;101331.25;5072006;28;19916;-33
2022/10/17 03:30:05;;;;;;;;;;;;;;;13.31;68.37;101335.69;5065883;28;19920;-32
2022/10/17 03:32:32;;;;;;;;;;;;;;;13.28;68.52;101331.31;5053706;28;19912;-32
2022/10/17 03:34:57;;;;;;;;;;;;;;;13.29;68.52;101334.81;5070475;28;19918;-32
2022/10/17 03:37:22;;;;;;;;;;;;;;;13.28;68.80;101328.66;5072824;28;20002;-32
2022/10/17 03:39:47;;;;;;;;;;;;;;;13.27;68.60;101326.03;5071879;28;19995;-33
2022/10/17 03:42:12;;;;;;;;;;;;;;;13.26;68.58;101334.84;5071691;28;19959;-32
2022/10/17 03:44:38;;;;;;;;;;;;;;;13.25;68.82;101335.75;5069696;28;19951;-33
2022/10/17 03:47:03;;;;;;;;;;;;;;;13.24;68.82;101334.00;5064849;28;19916;-32
2022/10/17 03:49:28;;;;;;;;;;;;;;;13.24;68.77;101339.31;5048675;28;19923;-33
2022/10/17 03:51:53;;;;;;;;;;;;;;;13.24;69.02;101342.81;5068119;28;19913;-32
2022/10/17 03:54:18;;;;;;;;;;;;;;;13.24;69.01;101339.31;5067883;28;19969;-33
2022/10/17 03:56:44;;;;;;;;;;;;;;;13.23;69.14;101346.34;5068029;28;19958;-32
2022/10/17 03:59:13;;;;;;;;;;;;;;;13.24;69.24;101347.25;5065854;28;19916;-33
2022/10/17 04:01:38;;;;;;;;;;;;;;;13.23;69.07;101346.34;5066566;28;19912;-32
2022/10/17 04:04:04;;;;;;;;;;;;;;;13.22;68.84;101349.91;5051679;28;19919;-33
2022/10/17 04:06:29;;;;;;;;;;;;;;;13.21;69.12;101343.72;5050716;28;19970;-32
2022/10/17 04:08:54;;;;;;;;;;;;;;;13.22;69.55;101352.56;5068976;28;20386;-33
2022/10/17 04:11:20;;;;;;;;;;;;;;;13.21;69.56;101353.47;5051153;28;19912;-33
2022/10/17 04:13:45;;;;;;;;;;;;;;;13.22;69.81;101363.16;5065258;28;19916;-33
2022/10/17 04:16:11;;;;;;;;;;;;;;;13.21;69.70;101358.75;5069745;28;19921;-33
2022/10/17 04:18:37;;;;;;;;;;;;;;;13.22;69.85;101352.56;5066989;28;20183;-32
2022/10/17 04:21:02;;;;;;;;;;;;;;;13.20;69.90;101349.03;5064084;28;19999;-33
2022/10/17 04:23:28;;;;;;;;;;;;;;;13.20;69.91;101352.56;5070363;28;19912;-33
2022/10/17 04:25:56;;;;;;;;;;;;;;;13.21;69.75;101356.09;5062859;28;20024;-32
2022/10/17 04:28:22;;;;;;;;;;;;;;;13.20;69.47;101360.50;5029716;28;19917;-31
2022/10/17 04:30:47;;;;;;;;;;;;;;;13.21;69.33;101356.09;5068380;28;19999;-32
2022/10/17 04:33:12;;;;;;;;;;;;;;;13.21;69.37;101356.09;5047475;28;19923;-32
2022/10/17 04:35:38;;;;;;;;;;;;;;;13.20;69.54;101359.63;5067268;28;19931;-31
2022/10/17 04:38:03;;;;;;;;;;;;;;;13.19;69.32;101361.41;5060810;28;19927;-32
2022/10/17 04:40:28;;;;;;;;;;;;;;;13.19;69.34;101364.06;5061462;28;19916;-33
2022/10/17 04:42:53;;;;;;;;;;;;;;;13.18;69.46;101367.56;5065949;28;19912;-33
2022/10/17 04:45:18;;;;;;;;;;;;;;;13.20;69.71;101375.50;5069987;28;19916;-32
2022/10/17 04:47:44;;;;;;;;;;;;;;;13.19;69.46;101369.38;5051466;28;19919;-32
2022/10/17 04:50:09;;;;;;;;;;;;;;;13.19;69.44;101379.97;5063154;28;20043;-32
2022/10/17 04:52:36;;;;;;;;;;;;;;;13.19;69.46;101377.31;5034525;28;19912;-32
2022/10/17 04:55:01;;;;;;;;;;;;;;;13.20;69.12;101371.09;5071714;28;19919;-31
2022/10/17 04:57:27;;;;;;;;;;;;;;;13.20;68.94;101378.16;5064321;28;20287;-33
2022/10/17 04:59:52;;;;;;;;;;;;;;;13.21;69.20;101372.84;5068635;28;19955;-33
2022/10/17 05:02:17;;;;;;;;;;;;;;;13.21;69.08;101374.66;5064556;28;19995;-32
2022/10/17 05:04:42;;;;;;;;;;;;;;;13.20;69.29;101375.50;5059668;28;19920;-33
2022/10/17 05:07:08;;;;;;;;;;;;;;;13.21;68.99;101379.94;5066611;28;20079;-32
2022/10/17 05:09:33;;;;;;;;;;;;;;;13.20;69.30;101379.06;5067584;28;20319;-33
2022/10/17 05:11:58;;;;;;;;;;;;;;;13.20;69.19;101375.50;5067531;28;20379;-33
2022/10/17 05:14:23;;;;;;;;;;;;;;;13.21;69.38;101379.94;5069286;28;20376;-33
2022/10/17 05:16:49;;;;;;;;;;;;;;;13.21;69.27;101374.66;5070265;28;19923;-33
2022/10/17 05:19:14;;;;;;;;;;;;;;;13.20;69.29;101379.06;5070796;28;20379;-32
2022/10/17 05:21:39;;;;;;;;;;;;;;;13.20;69.32;101381.69;5072270;28;19909;-33
2022/10/17 05:24:05;;;;;;;;;;;;;;;13.19;69.31;101372.00;5071153;28;19920;-33
2022/10/17 05:26:30;;;;;;;;;;;;;;;13.20;69.08;101378.16;5048101;28;19923;-33
2022/10/17 05:28:56;;;;;;;;;;;;;;;13.20;69.02;101380.81;5065951;28;19913;-32
2022/10/17 05:31:21;;;;;;;;;;;;;;;13.20;69.26;101386.13;5067464;28;19915;-33
2022/10/17 05:33:46;;;;;;;;;;;;;;;13.18;69.01;101375.53;5060564;28;20394;-33
2022/10/17 05:36:11;;;;;;;;;;;;;;;13.18;69.13;101378.19;5068923;28;20002;-33
2022/10/17 05:38:37;;;;;;;;;;;;;;;13.18;69.10;101380.81;5074329;28;19913;-33
2022/10/17 05:41:03;;;;;;;;;;;;;;;13.18;69.38;101382.63;5072801;28;19912;-33
2022/10/17 05:43:28;;;;;;;;;;;;;;;13.17;69.48;101381.72;5070058;28;19908;-33
2022/10/17 05:45:54;;;;;;;;;;;;;;;13.17;69.30;101381.72;5056080;28;20361;-33
2022/10/17 05:48:19;;;;;;;;;;;;;;;13.15;69.09;101380.88;5066410;28;19917;-33
2022/10/17 05:50:44;;;;;;;;;;;;;;;13.16;69.09;101387.91;5074726;28;19912;-33
2022/10/17 05:53:10;;;;;;;;;;;;;;;13.15;69.39;101390.56;5073011;28;19923;-32
2022/10/17 05:55:35;;;;;;;;;;;;;;;13.12;69.29;101394.13;5061522;28;19912;-32
2022/10/17 05:58:00;;;;;;;;;;;;;;;13.11;69.22;101402.97;5075407;28;19916;-33
2022/10/17 06:00:26;;;;;;;;;;;;;;;13.10;69.33;101403.84;5076522;28;20390;-33
2022/10/17 06:02:51;;;;;;;;;;;;;;;13.11;69.46;101399.44;5074691;28;19987;-32
2022/10/17 06:05:16;;;;;;;;;;;;;;;13.09;69.56;101404.75;5056771;28;19950;-32
2022/10/17 06:07:41;;;;;;;;;;;;;;;13.08;69.31;101410.94;5040825;28;19995;-33
2022/10/17 06:10:07;;;;;;;;;;;;;;;13.07;69.45;101411.81;5074962;28;19908;-33
2022/10/17 06:12:32;;;;;;;;;;;;;;;13.06;69.50;101415.34;5075338;28;19912;-32
2022/10/17 06:14:57;;;;;;;;;;;;;;;13.07;69.64;101425.06;5075052;28;19919;-33
2022/10/17 06:17:23;;;;;;;;;;;;;;;13.05;69.83;101413.63;5072199;28;20379;-33
2022/10/17 06:19:48;;;;;;;;;;;;;;;13.05;69.53;101422.44;5055191;28;20142;-33
2022/10/17 06:22:13;;;;;;;;;;;;;;;13.04;69.81;101418.03;5074809;28;19912;-32
2022/10/17 06:24:38;;;;;;;;;;;;;;;13.05;69.55;101422.44;5074434;28;19919;-32
2022/10/17 06:27:04;;;;;;;;;;;;;;;13.05;69.90;101421.56;5075039;28;20013;-33
2022/10/17 06:29:29;;;;;;;;;;;;;;;13.05;69.78;101421.56;5072134;28;19912;-33
2022/10/17 06:31:57;;;;;;;;;;;;;;;13.05;69.87;101430.38;5048190;28;19908;-32
2022/10/17 06:34:23;;;;;;;;;;;;;;;13.05;69.93;101433.03;5075519;28;19912;-33
2022/10/17 06:36:48;;;;;;;;;;;;;;;13.05;69.80;101425.09;5075385;28;19909;-33
2022/10/17 06:39:13;;;;;;;;;;;;;;;13.05;69.65;101427.75;5072577;28;19920;-33
2022/10/17 06:41:40;;;;;;;;;;;;;;;13.05;69.67;101421.56;5073602;28;20264;-34
2022/10/17 06:44:09;;;;;;;;;;;;;;;13.04;69.54;101422.47;5074047;28;20362;-33
2022/10/17 06:46:35;;;;;;;;;;;;;;;13.05;69.58;101418.91;5074594;28;19912;-33
2022/10/17 06:49:00;;;;;;;;;;;;;;;13.05;69.73;101429.50;5073478;28;19931;-33
2022/10/17 06:51:25;;;;;;;;;;;;;;;13.06;69.50;101431.25;5074449;28;19962;-33
2022/10/17 06:53:51;;;;;;;;;;;;;;;13.09;69.64;101439.19;5073323;28;19965;-33
2022/10/17 06:56:18;;;;;;;;;;;;;;;13.12;69.85;101435.63;5073038;28;20007;-33
2022/10/17 06:58:44;;;;;;;;;;;;;;;13.14;69.72;101450.59;5073447;28;19909;-33
2022/10/17 07:01:10;;;;;;;;;;;;;;;13.17;69.72;101441.78;5071501;28;19916;-33
2022/10/17 07:03:36;;;;;;;;;;;;;;;13.20;69.70;101453.22;5041268;28;20363;-32
2022/10/17 07:06:02;;;;;;;;;;;;;;;13.23;69.81;101454.09;5062426;28;19931;-33
2022/10/17 07:08:27;;;;;;;;;;;;;;;13.27;69.98;101461.13;5073786;28;19908;-33
2022/10/17 07:10:53;;;;;;;;;;;;;;;13.29;70.07;101465.53;5073422;28;19919;-33
2022/10/17 07:13:18;;;;;;;;;;;;;;;13.32;70.09;101465.50;5048485;28;19916;-33
2022/10/17 07:15:44;;;;;;;;;;;;;;;13.37;70.24;101467.22;5073975;28;19916;-33
2022/10/17 07:18:09;;;;;;;;;;;;;;;13.42;70.56;101468.97;5073810;28;20364;-33
2022/10/17 07:20:35;;;;;;;;;;;;;;;13.46;70.84;101473.34;5073137;28;20014;-32
2022/10/17 07:23:00;;;;;;;;;;;;;;;13.53;71.07;101475.94;5073296;28;19944;-32
2022/10/17 07:25:26;;;;;;;;;;;;;;;13.59;71.14;101481.19;5073988;28;20355;-32
2022/10/17 07:27:51;;;;;;;;;;;;;;;13.63;71.38;101480.28;5072842;28;19916;-33
2022/10/17 07:30:17;;;;;;;;;;;;;;;13.68;71.44;101491.75;5072199;28;20466;-32
2022/10/17 07:32:42;;;;;;;;;;;;;;;13.73;71.60;101487.25;5067257;28;20272;-33
2022/10/17 07:35:08;;;;;;;;;;;;;;;13.80;71.67;101485.44;5054119;28;19908;-32
2022/10/17 07:37:33;;;;;;;;;;;;;;;13.85;71.75;101491.56;5054273;28;19935;-33
2022/10/17 07:39:59;;;;;;;;;;;;;;;13.91;71.83;101489.75;5053049;28;20007;-32
2022/10/17 07:42:24;;;;;;;;;;;;;;;13.97;71.97;101490.56;5050897;28;19962;-32
2022/10/17 07:44:50;;;;;;;;;;;;;;;14.01;71.72;101490.53;5053659;28;19909;-33
2022/10/17 07:47:15;;;;;;;;;;;;;;;14.06;71.67;101489.59;5056832;28;19969;-32
2022/10/17 07:49:42;;;;;;;;;;;;;;;14.13;71.63;101486.88;5073035;28;19920;-32
2022/10/17 07:52:11;;;;;;;;;;;;;;;14.18;71.49;101485.06;5069414;28;19912;-33
2022/10/17 07:54:37;;;;;;;;;;;;;;;14.24;71.57;101477.03;5070795;28;19990;-32
2022/10/17 07:57:02;;;;;;;;;;;;;;;14.28;71.30;101477.88;5071644;28;20003;-33
2022/10/17 07:59:28;;;;;;;;;;;;;;;14.32;71.25;101480.47;5072037;28;19908;-32
2022/10/17 08:01:56;;;;;;;;;;;;;;;14.38;71.25;101482.19;5056312;28;19909;-33
2022/10/17 08:04:22;;;;;;;;;;;;;;;14.43;71.11;101484.75;5053525;28;19966;-33
2022/10/17 08:06:47;;;;;;;;;;;;;;;14.50;71.18;101494.41;5058134;28;19923;-33
2022/10/17 08:09:13;;;;;;;;;;;;;;;14.57;71.22;101487.25;5070954;28;19912;-33
2022/10/17 08:11:38;;;;;;;;;;;;;;;14.63;71.28;101489.81;5073394;28;19916;-33
2022/10/17 08:14:03;;;;;;;;;;;;;;;14.70;71.50;101495.91;5072061;28;20397;-33
2022/10/17 08:16:29;;;;;;;;;;;;;;;14.77;71.52;101486.09;5072920;28;19985;-33
2022/10/17 08:18:54;;;;;;;;;;;;;;;14.84;71.58;101493.13;5070451;28;20002;-33
2022/10/17 08:21:19;;;;;;;;;;;;;;;14.90;71.58;101492.16;5072682;28;19978;-33
2022/10/17 08:23:45;;;;;;;;;;;;;;;14.97;71.33;101496.50;5072150;28;20007;-33
2022/10/17 08:26:12;;;;;;;;;;;;;;;15.05;71.35;101493.72;5072836;28;19912;-33
2022/10/17 08:28:38;;;;;;;;;;;;;;;15.12;71.17;101484.75;5071428;28;19912;-33
2022/10/17 08:31:08;;;;;;;;;;;;;;;15.19;71.43;101483.75;5048274;28;19916;-33
2022/10/17 08:33:33;;;;;;;;;;;;;;;15.26;71.24;101473.91;5069396;28;19919;-33
2022/10/17 08:35:59;;;;;;;;;;;;;;;15.33;71.30;101480.88;5072229;28;19912;-32
2022/10/17 08:38:25;;;;;;;;;;;;;;;15.40;72.17;101478.97;5070971;28;19919;-33
2022/10/17 08:40:50;;;;;;;;;;;;;;;15.49;72.21;101485.94;5064204;28;20319;-33
2022/10/17 08:43:22;;;;;;;;;;;;;;;15.57;73.18;101481.34;5051413;28;19908;-33
2022/10/17 08:45:54;;;;;;;;;;;;;;;15.65;72.90;101467.94;5049620;28;19922;-33
2022/10/17 08:48:21;;;;;;;;;;;;;;;15.73;73.00;101468.69;5047981;28;19916;-33
2022/10/17 08:50:57;;;;;;;;;;;;;;;15.82;72.92;101469.41;5052573;28;19920;-33
2022/10/17 08:53:31;;;;;;;;;;;;;;;15.91;73.42;101466.59;5053989;28;19912;-33
2022/10/17 08:55:57;;;;;;;;;;;;;;;15.99;73.54;101466.47;5071409;28;19958;-33
2022/10/17 08:58:23;;;;;;;;;;;;;;;16.07;73.33;101461.03;5059246;28;20291;-33
2022/10/17 09:01:08;;;;;;;;;;;;;;;16.15;74.28;101465.25;5054893;28;19920;-33
2022/10/17 09:03:33;;;;;;;;;;;;;;;16.26;74.27;101462.41;5071798;28;19998;-33
2022/10/17 09:06:04;;;;;;;;;;;;;;;16.35;74.55;101460.44;5071154;28;20031;-32
2022/10/17 09:08:44;;;;;;;;;;;;;;;16.43;74.62;101458.50;5072614;28;19970;-32
2022/10/17 09:11:28;;;;;;;;;;;;;;;16.52;74.84;101463.63;5052334;28;19916;-32
2022/10/17 09:14:12;;;;;;;;;;;;;;;16.66;74.68;101471.31;5071937;28;20507;-33
2022/10/17 09:16:37;;;;;;;;;;;;;;;16.75;74.46;101467.59;5057723;28;19920;-31
2022/10/17 09:19:06;;;;;;;;;;;;;;;16.87;74.71;101463.75;5052587;28;19913;-32
2022/10/17 09:21:39;;;;;;;;;;;;;;;16.99;75.04;101461.72;5050921;28;19912;-32
2022/10/17 09:24:09;;;;;;;;;;;;;;;17.11;74.36;101471.25;5053000;28;19913;-33
2022/10/17 09:26:34;;;;;;;;;;;;;;;17.23;74.90;101473.63;5066669;28;20358;-33
2022/10/17 09:29:00;;;;;;;;;;;;;;;17.33;74.67;101470.75;5071429;28;19938;-33
2022/10/17 09:31:27;;;;;;;;;;;;;;;17.42;73.91;101474.03;5053831;28;19998;-32
2022/10/17 09:33:56;;;;;;;;;;;;;;;17.54;73.32;101471.97;5072499;28;19909;-32
2022/10/17 09:36:22;;;;;;;;;;;;;;;17.62;73.13;101469.09;5050087;28;20336;-33
2022/10/17 09:39:14;;;;;;;;;;;;;;;17.70;72.80;101475.09;5068015;28;20363;-33
2022/10/17 09:41:40;;;;;;;;;;;;;;;17.80;72.81;101476.63;5048483;28;20358;-33
2022/10/17 09:44:25;;;;;;;;;;;;;;;17.87;72.62;101472.00;5072492;28;19913;-33
2022/10/17 09:46:50;;;;;;;;;;;;;;;17.95;72.50;101471.78;5051234;28;20419;-33
2022/10/17 09:49:20;;;;;;;;;;;;;;;18.01;72.33;101463.59;5070563;28;19966;-33
2022/10/17 09:51:45;;;;;;;;;;;;;;;18.07;71.97;101466.09;5053544;28;19908;-33
2022/10/17 09:54:17;;;;;;;;;;;;;;;18.14;72.15;101469.50;5054031;28;19935;-32
2022/10/17 09:57:02;;;;;;;;;;;;;;;18.20;71.81;101463.13;5075929;28;20390;-32
2022/10/17 09:59:37;;;;;;;;;;;;;;;18.27;71.47;101459.34;5068766;28;19912;-33
2022/10/17 10:02:09;;;;;;;;;;;;;;;18.34;71.54;101460.03;5053752;28;19963;-33
2022/10/17 10:04:34;;;;;;;;;;;;;;;18.40;71.25;101458.97;5071766;28;19908;-33
2022/10/17 10:07:00;;;;;;;;;;;;;;;18.46;71.23;101461.47;5070068;28;20276;-34
2022/10/17 10:09:26;;;;;;;;;;;;;;;18.52;71.02;101457.75;5066651;28;20279;-33
2022/10/17 10:11:53;;;;;;;;;;;;;;;18.56;70.87;101454.94;5050406;28;19909;-33
2022/10/17 10:14:32;;;;;;;;;;;;;;;18.64;70.77;101459.19;5071671;28;19912;-33
2022/10/17 10:16:57;;;;;;;;;;;;;;;18.67;70.55;101457.28;5071072;28;19912;-33
2022/10/17 10:19:33;;;;;;;;;;;;;;;18.73;70.57;101450.88;5069247;28;19912;-32
2022/10/17 10:22:00;;;;;;;;;;;;;;;18.79;71.00;101452.47;5069375;28;19913;-32
2022/10/17 10:24:26;;;;;;;;;;;;;;;18.84;70.90;101440.72;5054513;28;19919;-32
2022/10/17 10:26:53;;;;;;;;;;;;;;;18.91;70.69;101449.41;5073866;28;19912;-32
2022/10/17 10:29:22;;;;;;;;;;;;;;;18.96;70.65;101446.59;5072881;28;19979;-32
2022/10/17 10:31:48;;;;;;;;;;;;;;;19.02;70.53;101443.75;5074998;28;19919;-33
2022/10/17 10:34:16;;;;;;;;;;;;;;;19.07;70.49;101436.47;5056670;28;20010;-33
2022/10/17 10:36:52;;;;;;;;;;;;;;;19.14;70.56;101442.47;5072957;28;20283;-33
2022/10/17 10:39:38;;;;;;;;;;;;;;;19.21;70.58;101435.16;5066497;28;19912;-33
2022/10/17 10:42:05;;;;;;;;;;;;;;;19.28;70.44;101442.06;5073879;28;19915;-32
2022/10/17 10:44:31;;;;;;;;;;;;;;;19.35;70.24;101427.50;5072785;28;20417;-33
2022/10/17 10:47:14;;;;;;;;;;;;;;;19.42;70.37;101427.31;5072888;28;19951;-33
2022/10/17 10:49:40;;;;;;;;;;;;;;;19.51;70.72;101427.00;5074416;28;19985;-33
2022/10/17 10:52:05;;;;;;;;;;;;;;;19.57;70.49;101439.31;5074644;28;19955;-33
2022/10/17 10:54:32;;;;;;;;;;;;;;;19.67;70.53;101437.19;5075005;28;20375;-33
2022/10/17 10:56:58;;;;;;;;;;;;;;;19.76;70.28;101442.19;5074383;28;19913;-32
2022/10/17 10:59:43;;;;;;;;;;;;;;;19.80;69.97;101438.47;5060582;28;19913;-32
2022/10/17 11:02:10;;;;;;;;;;;;;;;19.88;69.77;101447.09;5064626;28;19951;-32
2022/10/17 11:04:36;;;;;;;;;;;;;;;19.98;69.72;101449.44;5069543;28;19991;-33
2022/10/17 11:07:15;;;;;;;;;;;;;;;20.06;69.63;101442.03;5064318;28;20015;-33
2022/10/17 11:09:46;;;;;;;;;;;;;;;20.16;69.52;101439.00;5061015;28;20367;-32
2022/10/17 11:12:15;;;;;;;;;;;;;;;20.27;69.26;101433.25;5072487;28;20431;-32
2022/10/17 11:14:43;;;;;;;;;;;;;;;20.36;68.75;101435.56;5069192;28;19912;-33
2022/10/17 11:17:12;;;;;;;;;;;;;;;20.45;68.93;101434.34;5074121;28;19958;-33
2022/10/17 11:19:55;;;;;;;6.20;2.90;;;;;;;20.53;68.63;101426.88;5051390;28;19916;-32
2022/10/17 11:22:30;;;;;;;5.03;2.85;;;;;;;20.63;68.17;101430.97;5063025;28;20029;-32
2022/10/17 11:25:19;;;;;;;;;;;;;;;20.72;67.81;101426.16;5048374;28;20475;-33
2022/10/17 11:27:44;;;;;;;;;;;;;;;20.85;67.63;101426.53;5047479;28;20349;-33
2022/10/17 11:30:13;;;;;;;;;;;;;;;20.91;67.46;101418.28;5064624;28;19928;-32
2022/10/17 11:32:43;;;;;;;;;;;;;;;21.00;67.49;101420.59;5070316;28;20265;-33
2022/10/17 11:35:15;;;;;;;;;;;;;;;21.13;67.09;101431.66;5048164;28;20310;-33
2022/10/17 11:37:42;;;;;;;;;;;;;;;21.22;66.85;101418.81;5059339;28;19986;-32
2022/10/17 11:40:17;;;;;;;;;;;;;;;21.31;66.42;101418.44;5065081;28;19958;-33
2022/10/17 11:42:47;;;;;;;;;;;;;;;21.39;65.97;101427.03;5065801;28;20319;-33
2022/10/17 11:45:14;;;;;;;;;;;;;;;21.48;65.96;101412.31;5048782;28;20041;-33
2022/10/17 11:47:57;;;;;;;;;;;;;;;21.61;65.52;101414.47;5051862;28;19916;-33
2022/10/17 11:50:26;;;;;;;;;;;;;;;21.64;65.64;101404.47;5045603;28;19965;-33
2022/10/17 11:53:02;;;;;;;;;;;;;;;21.71;65.51;101401.50;5068434;28;19923;-32
2022/10/17 11:55:29;;;;;;;;;;;;;;;21.78;65.26;101400.34;5067477;28;19912;-33
2022/10/17 11:58:01;;;;;;;;;;;;;;;21.85;65.44;101388.38;5065458;28;20119;-33
2022/10/17 12:00:33;;;;;;;;;;;;;;;21.94;65.68;101384.38;5051271;28;19936;-33
2022/10/17 12:03:17;;;;;;;;;;;;;;;22.02;65.39;101384.03;5066191;28;19913;-33
2022/10/17 12:05:52;;;;;;;;;;;;;;;22.13;64.98;101387.09;5071911;28;20010;-32
2022/10/17 12:08:21;;;;;;;;;;;;;;;22.36;63.19;101401.25;5050836;28;19927;-33
2022/10/17 12:10:58;;;;;;;;;;;;;;;22.52;62.22;101400.53;5068225;28;19916;-33
2022/10/17 12:13:26;;;;;;;;;;;;;;;22.61;61.91;101396.56;5062083;28;19912;-33
2022/10/17 12:15:51;;;;;;;;;;;;;;;22.71;60.97;101392.47;5070039;28;19918;-33
2022/10/17 12:18:17;;;;;;;;;;;;;;;22.86;59.88;101396.22;5070124;28;19916;-33
2022/10/17 12:20:42;;;;;;;;;;;;;;;22.99;59.36;101387.53;5071728;28;20264;-32
2022/10/17 12:23:11;;;;;;;;;;;;;;;23.06;59.72;101388.97;5053154;28;19909;-32
2022/10/17 12:25:46;;;;;;;;;;;;;;;23.14;59.51;101386.75;5053784;28;20034;-32
2022/10/17 12:28:13;;;;;;;;;;;;;;;23.27;58.84;101386.13;5071242;28;20168;-33
2022/10/17 12:30:52;;;;;;;;;;;;;;;23.35;58.31;101391.09;5068567;28;20135;-33
2022/10/17 12:33:21;;;;;;;;;;;;;;;23.47;57.18;101378.88;5070685;28;19912;-32
2022/10/17 12:35:49;;;;;;;;;;;;;;;23.59;56.75;101386.28;5069527;28;19943;-32
2022/10/17 12:38:17;;;;;;;;;;;;;;;23.71;55.44;101382.94;5063520;28;19912;-33